createdAt,value
2022-07-29T00:00:01.839Z,50.07
2022-07-29T00:02:29.327Z,50.22
2022-07-29T00:04:55.971Z,49.90
2022-07-29T00:07:22.609Z,49.82
2022-07-29T00:09:50.786Z,50.02
2022-07-29T00:12:26.528Z,49.97
2022-07-29T00:14:55.370Z,49.82
2022-07-29T00:17:22.430Z,49.99
2022-07-29T00:19:48.947Z,50.10
2022-07-29T00:22:15.514Z,49.98
2022-07-29T00:24:42.253Z,50.27
2022-07-29T00:27:08.830Z,50.32
2022-07-29T00:29:35.624Z,50.39
2022-07-29T00:32:03.278Z,50.23
2022-07-29T00:34:48.354Z,50.05
2022-07-29T00:37:14.923Z,50.04
2022-07-29T00:39:41.518Z,49.56
2022-07-29T00:42:08.787Z,49.03
2022-07-29T00:44:42.524Z,48.88
2022-07-29T00:47:11.522Z,48.95
2022-07-29T00:49:41.030Z,48.68
2022-07-29T00:52:10.350Z,48.91
2022-07-29T00:54:44.042Z,48.60
2022-07-29T00:57:13.088Z,48.52
2022-07-29T00:59:40.329Z,47.79
2022-07-29T01:02:07.010Z,47.27
2022-07-29T01:04:34.322Z,47.25
2022-07-29T01:07:05.498Z,47.13
2022-07-29T01:09:46.251Z,47.24
2022-07-29T01:12:26.634Z,47.27
2022-07-29T01:14:56.497Z,47.19
2022-07-29T01:18:06.568Z,47.40
2022-07-29T01:20:42.390Z,47.93
2022-07-29T01:23:48.828Z,48.02
2022-07-29T01:26:40.345Z,48.11
2022-07-29T01:29:42.376Z,48.89
2022-07-29T01:32:28.282Z,48.46
2022-07-29T01:35:27.258Z,48.32
2022-07-29T01:38:01.413Z,48.51
2022-07-29T01:40:47.536Z,48.32
2022-07-29T01:43:19.663Z,48.26
2022-07-29T01:45:58.684Z,48.44
2022-07-29T01:48:40.444Z,48.75
2022-07-29T01:51:36.806Z,49.04
2022-07-29T01:54:28.339Z,49.32
2022-07-29T01:56:59.579Z,48.92
2022-07-29T01:59:27.150Z,48.46
2022-07-29T02:01:58.145Z,48.50
2022-07-29T02:04:29.998Z,48.47
2022-07-29T02:07:02.632Z,48.08
2022-07-29T02:09:31.330Z,48.10
2022-07-29T02:14:48.377Z,48.49
2022-07-29T02:17:25.837Z,48.56
2022-07-29T02:19:58.343Z,49.05
2022-07-29T02:22:29.704Z,49.33
2022-07-29T02:24:58.057Z,49.37
2022-07-29T02:27:28.146Z,49.49
2022-07-29T02:29:59.445Z,49.78
2022-07-29T02:32:28.206Z,50.06
2022-07-29T02:34:56.550Z,50.19
2022-07-29T02:37:25.863Z,49.73
2022-07-29T02:39:55.839Z,49.44
2022-07-29T02:42:27.398Z,49.47
2022-07-29T02:44:54.176Z,49.50
2022-07-29T02:47:20.675Z,49.73
2022-07-29T02:50:05.243Z,49.72
2022-07-29T02:52:42.835Z,50.08
2022-07-29T02:55:26.363Z,50.30
2022-07-29T02:58:02.706Z,50.45
2022-07-29T03:00:32.260Z,50.60
2022-07-29T03:03:04.863Z,50.65
2022-07-29T03:05:32.374Z,50.87
2022-07-29T03:08:05.937Z,51.33
2022-07-29T03:10:34.056Z,51.29
2022-07-29T03:13:02.102Z,51.37
2022-07-29T03:15:30.338Z,51.70
2022-07-29T03:17:57.712Z,51.76
2022-07-29T03:20:26.388Z,51.81
2022-07-29T03:22:53.069Z,51.75
2022-07-29T03:25:21.242Z,51.83
2022-07-29T03:27:49.110Z,52.33
2022-07-29T03:30:18.306Z,52.02
2022-07-29T03:32:52.254Z,52.16
2022-07-29T03:35:20.516Z,52.21
2022-07-29T03:37:47.371Z,52.46
2022-07-29T03:40:23.138Z,52.71
2022-07-29T03:42:54.111Z,53.06
2022-07-29T03:45:22.385Z,53.10
2022-07-29T03:48:00.374Z,52.93
2022-07-29T03:50:31.506Z,53.11
2022-07-29T03:52:59.077Z,52.96
2022-07-29T03:55:29.139Z,53.22
2022-07-29T03:57:58.153Z,53.13
2022-07-29T04:00:27.740Z,52.93
2022-07-29T04:02:54.330Z,53.07
2022-07-29T04:05:21.115Z,52.70
2022-07-29T04:07:50.709Z,52.87
2022-07-29T04:10:30.680Z,53.48
2022-07-29T04:13:00.630Z,53.64
2022-07-29T04:15:30.968Z,53.61
2022-07-29T04:17:59.335Z,53.45
2022-07-29T04:20:26.629Z,53.84
2022-07-29T04:22:53.141Z,54.04
2022-07-29T04:25:19.646Z,54.50
2022-07-29T04:28:01.467Z,54.50
2022-07-29T04:30:29.035Z,54.62
2022-07-29T04:32:55.623Z,54.58
2022-07-29T04:35:22.138Z,54.73
2022-07-29T04:37:48.758Z,54.67
2022-07-29T04:40:15.827Z,54.37
2022-07-29T04:42:46.489Z,54.89
2022-07-29T04:45:14.122Z,55.27
2022-07-29T04:47:41.224Z,55.57
2022-07-29T04:50:10.001Z,55.84
2022-07-29T04:52:36.961Z,56.01
2022-07-29T04:55:05.999Z,56.25
2022-07-29T04:57:33.331Z,56.09
2022-07-29T05:00:00.012Z,56.14
2022-07-29T05:02:26.638Z,55.28
2022-07-29T05:04:53.276Z,54.72
2022-07-29T05:07:19.850Z,54.27
2022-07-29T05:09:46.367Z,54.12
2022-07-29T05:12:13.010Z,53.66
2022-07-29T05:14:39.628Z,53.41
2022-07-29T05:17:06.331Z,53.25
2022-07-29T05:19:32.902Z,53.04
2022-07-29T05:22:00.897Z,53.00
2022-07-29T05:24:27.447Z,52.83
2022-07-29T05:26:53.979Z,52.94
2022-07-29T05:29:44.539Z,52.70
2022-07-29T05:32:07.887Z,52.94
2022-07-29T05:34:34.739Z,53.25
2022-07-29T05:37:01.315Z,53.27
2022-07-29T05:39:48.303Z,54.26
2022-07-29T05:42:14.640Z,54.76
2022-07-29T05:44:41.287Z,54.97
2022-07-29T05:47:07.785Z,55.04
2022-07-29T05:49:34.411Z,55.12
2022-07-29T05:52:01.064Z,54.89
2022-07-29T05:54:27.667Z,55.26
2022-07-29T05:56:54.227Z,55.45
2022-07-29T05:59:20.726Z,55.37
2022-07-29T06:01:47.519Z,55.09
2022-07-29T06:04:14.762Z,55.33
2022-07-29T06:06:41.496Z,54.93
2022-07-29T06:09:12.437Z,54.82
2022-07-29T06:11:39.213Z,55.47
2022-07-29T06:14:06.055Z,54.98
2022-07-29T06:16:32.751Z,54.23
2022-07-29T06:18:59.536Z,54.61
2022-07-29T06:21:26.070Z,54.33
2022-07-29T06:23:52.630Z,54.28
2022-07-29T06:26:19.161Z,54.17
2022-07-29T06:28:57.457Z,54.38
2022-07-29T06:31:24.073Z,53.84
2022-07-29T06:33:50.771Z,53.50
2022-07-29T06:36:17.375Z,53.69
2022-07-29T06:38:49.190Z,53.64
2022-07-29T06:41:18.854Z,53.81
2022-07-29T06:43:52.571Z,53.50
2022-07-29T06:46:23.750Z,53.58
2022-07-29T06:48:53.011Z,53.55
2022-07-29T06:51:22.676Z,53.50
2022-07-29T06:54:00.423Z,53.80
2022-07-29T06:56:32.443Z,54.20
2022-07-29T06:59:06.309Z,54.46
2022-07-29T07:01:33.033Z,54.79
2022-07-29T07:03:59.714Z,54.67
2022-07-29T07:06:26.253Z,54.70
2022-07-29T07:08:52.828Z,54.51
2022-07-29T07:11:19.483Z,54.04
2022-07-29T07:13:46.049Z,53.56
2022-07-29T07:16:12.657Z,53.25
2022-07-29T07:18:39.228Z,52.80
2022-07-29T07:21:06.603Z,52.16
2022-07-29T07:23:33.208Z,52.29
2022-07-29T07:25:59.699Z,51.96
2022-07-29T07:28:26.275Z,51.66
2022-07-29T07:30:53.100Z,51.37
2022-07-29T07:33:20.202Z,51.07
2022-07-29T07:35:47.193Z,50.38
2022-07-29T07:38:14.432Z,49.90
2022-07-29T07:40:42.157Z,49.33
2022-07-29T07:43:08.868Z,48.99
2022-07-29T07:45:37.902Z,48.29
2022-07-29T07:48:05.287Z,47.84
2022-07-29T07:50:31.853Z,47.21
2022-07-29T07:52:58.922Z,46.71
2022-07-29T07:55:27.059Z,46.18
2022-07-29T07:57:57.164Z,46.03
2022-07-29T08:00:24.059Z,46.12
2022-07-29T08:02:51.620Z,45.52
2022-07-29T08:05:19.217Z,45.44
2022-07-29T08:07:48.764Z,45.27
2022-07-29T08:10:36.876Z,45.05
2022-07-29T08:13:09.204Z,44.89
2022-07-29T08:15:36.213Z,44.90
2022-07-29T08:18:08.441Z,44.77
2022-07-29T08:20:38.869Z,44.57
2022-07-29T08:23:09.544Z,44.59
2022-07-29T08:25:40.274Z,43.79
2022-07-29T08:28:07.178Z,44.00
2022-07-29T08:30:34.363Z,43.75
2022-07-29T08:33:01.007Z,43.43
2022-07-29T08:35:32.133Z,43.30
2022-07-29T08:38:01.515Z,43.48
2022-07-29T08:40:32.235Z,43.48
2022-07-29T08:43:06.549Z,43.52
2022-07-29T08:45:48.130Z,43.12
2022-07-29T08:48:19.119Z,43.00
2022-07-29T08:50:48.052Z,42.90
2022-07-29T08:53:18.860Z,42.70
2022-07-29T08:55:50.847Z,42.57
2022-07-29T08:58:22.985Z,42.83
2022-07-29T09:00:56.795Z,42.68
2022-07-29T09:03:32.823Z,42.41
2022-07-29T09:06:00.485Z,42.47
2022-07-29T09:08:27.598Z,42.15
2022-07-29T09:10:56.522Z,41.95
2022-07-29T09:13:23.936Z,41.63
2022-07-29T09:15:50.460Z,41.04
2022-07-29T09:18:37.478Z,41.06
2022-07-29T09:21:24.655Z,40.88
2022-07-29T09:24:11.066Z,40.20
2022-07-29T09:26:43.889Z,40.95
2022-07-29T09:29:19.018Z,40.31
2022-07-29T09:31:52.282Z,39.97
2022-07-29T09:34:32.026Z,40.72
2022-07-29T09:36:59.049Z,40.23
2022-07-29T09:39:37.233Z,40.01
2022-07-29T09:42:07.086Z,40.00
2022-07-29T09:44:49.759Z,39.34
2022-07-29T09:47:22.579Z,39.97
2022-07-29T09:50:00.705Z,39.28
2022-07-29T09:52:29.805Z,39.12
2022-07-29T09:55:13.554Z,39.07
2022-07-29T09:57:46.080Z,39.43
2022-07-29T10:00:23.826Z,38.87
2022-07-29T10:02:51.655Z,38.83
2022-07-29T10:05:25.050Z,38.44
2022-07-29T10:07:57.190Z,38.37
2022-07-29T10:10:36.799Z,38.33
2022-07-29T10:13:16.120Z,38.46
2022-07-29T10:15:46.094Z,37.90
2022-07-29T10:18:18.019Z,37.79
2022-07-29T10:20:44.586Z,37.54
2022-07-29T10:23:11.212Z,37.53
2022-07-29T10:25:37.892Z,37.01
2022-07-29T10:28:06.913Z,37.27
2022-07-29T10:30:34.093Z,37.21
2022-07-29T10:33:54.642Z,37.53
2022-07-29T10:36:55.672Z,37.05
2022-07-29T10:39:44.492Z,37.29
2022-07-29T10:42:34.193Z,37.07
2022-07-29T10:45:04.616Z,36.66
2022-07-29T10:47:32.392Z,36.92
2022-07-29T10:50:06.504Z,36.40
2022-07-29T10:52:53.568Z,36.36
2022-07-29T10:55:34.392Z,35.76
2022-07-29T10:58:24.647Z,35.08
2022-07-29T11:00:54.619Z,35.34
2022-07-29T11:03:41.639Z,35.17
2022-07-29T11:06:17.007Z,35.57
2022-07-29T11:08:44.771Z,35.77
2022-07-29T11:11:29.515Z,34.96
2022-07-29T11:13:56.972Z,35.85
2022-07-29T11:16:24.919Z,35.42
2022-07-29T11:19:29.989Z,34.45
2022-07-29T11:21:58.746Z,35.20
2022-07-29T11:24:32.911Z,35.25
2022-07-29T11:30:06.973Z,34.49
2022-07-29T11:32:44.662Z,34.69
2022-07-29T11:35:37.353Z,35.14
2022-07-29T11:38:31.806Z,34.33
2022-07-29T11:41:30.031Z,34.81
2022-07-29T11:44:01.266Z,35.43
2022-07-29T11:46:51.278Z,35.71
2022-07-29T11:49:32.183Z,35.52
2022-07-29T11:52:02.539Z,34.88
2022-07-29T11:54:57.223Z,34.15
2022-07-29T11:57:22.409Z,34.64
2022-07-29T11:59:49.640Z,34.52
2022-07-29T12:02:37.163Z,34.58
2022-07-29T12:05:10.454Z,34.61
2022-07-29T12:07:41.146Z,34.29
2022-07-29T12:10:20.189Z,33.84
2022-07-29T12:12:57.035Z,33.93
2022-07-29T12:15:25.027Z,34.36
2022-07-29T12:18:19.415Z,34.36
2022-07-29T12:20:59.354Z,34.07
2022-07-29T12:23:34.730Z,34.53
2022-07-29T12:26:07.531Z,34.63
2022-07-29T12:28:39.540Z,34.18
2022-07-29T12:31:06.605Z,34.89
2022-07-29T12:33:35.809Z,34.07
2022-07-29T12:36:10.321Z,34.38
2022-07-29T12:38:41.184Z,33.94
2022-07-29T12:41:08.000Z,34.10
2022-07-29T12:43:34.580Z,33.50
2022-07-29T12:46:15.908Z,33.08
2022-07-29T12:48:44.799Z,33.30
2022-07-29T12:51:15.178Z,33.94
2022-07-29T12:53:42.366Z,33.69
2022-07-29T12:59:23.869Z,33.95
2022-07-29T13:01:52.928Z,33.76
2022-07-29T13:04:31.351Z,33.29
2022-07-29T13:07:08.179Z,33.34
2022-07-29T13:09:44.485Z,33.55
2022-07-29T13:12:14.329Z,34.19
2022-07-29T13:14:47.160Z,34.83
2022-07-29T13:17:28.627Z,34.33
2022-07-29T13:20:13.544Z,33.72
2022-07-29T13:22:48.224Z,34.01
2022-07-29T13:25:15.239Z,34.02
2022-07-29T13:27:41.883Z,33.79
2022-07-29T13:30:10.564Z,33.71
2022-07-29T13:32:38.567Z,34.03
2022-07-29T13:35:08.900Z,33.87
2022-07-29T13:37:39.329Z,34.16
2022-07-29T13:40:11.423Z,33.85
2022-07-29T13:42:38.182Z,33.95
2022-07-29T13:45:07.454Z,34.35
2022-07-29T13:47:35.110Z,34.63
2022-07-29T13:50:02.896Z,34.64
2022-07-29T13:52:29.901Z,34.75
2022-07-29T13:54:56.949Z,34.99
2022-07-29T13:57:23.610Z,34.08
2022-07-29T13:59:54.156Z,33.86
2022-07-29T14:02:25.813Z,33.33
2022-07-29T14:04:54.397Z,33.44
2022-07-29T14:07:21.114Z,33.03
2022-07-29T14:09:47.634Z,32.96
2022-07-29T14:12:14.195Z,33.26
2022-07-29T14:14:40.892Z,33.02
2022-07-29T14:17:07.916Z,32.69
2022-07-29T14:19:39.704Z,32.97
2022-07-29T14:22:08.675Z,33.13
2022-07-29T14:24:37.635Z,33.10
2022-07-29T14:27:05.840Z,33.21
2022-07-29T14:29:37.083Z,33.13
2022-07-29T14:32:08.037Z,33.45
2022-07-29T14:34:36.797Z,33.48
2022-07-29T14:37:06.419Z,33.43
2022-07-29T14:39:39.339Z,33.22
2022-07-29T14:42:11.648Z,33.28
2022-07-29T14:44:39.490Z,33.94
2022-07-29T14:47:07.701Z,33.97
2022-07-29T14:49:35.738Z,34.11
2022-07-29T14:52:02.300Z,34.15
2022-07-29T14:54:28.895Z,34.49
2022-07-29T14:56:58.286Z,34.66
2022-07-29T14:59:25.920Z,34.50
2022-07-29T15:01:52.638Z,34.28
2022-07-29T15:04:19.177Z,34.06
2022-07-29T15:06:46.192Z,33.72
2022-07-29T15:09:12.828Z,34.03
2022-07-29T15:11:39.445Z,33.95
2022-07-29T15:14:07.154Z,34.20
2022-07-29T15:16:36.854Z,34.55
2022-07-29T15:19:05.083Z,34.42
2022-07-29T15:21:31.593Z,35.18
2022-07-29T15:23:58.167Z,34.16
2022-07-29T15:26:24.669Z,34.48
2022-07-29T15:28:51.905Z,34.67
2022-07-29T15:31:19.763Z,34.81
2022-07-29T15:33:46.439Z,35.14
2022-07-29T15:36:25.444Z,35.12
2022-07-29T15:38:59.898Z,34.75
2022-07-29T15:41:26.505Z,34.74
2022-07-29T15:43:53.084Z,35.16
2022-07-29T15:46:39.694Z,35.49
2022-07-29T15:49:07.717Z,35.72
2022-07-29T15:51:34.921Z,35.84
2022-07-29T15:54:03.626Z,35.99
2022-07-29T15:56:31.553Z,36.21
2022-07-29T15:58:58.613Z,35.75
2022-07-29T16:01:25.544Z,35.93
2022-07-29T16:03:52.268Z,35.76
2022-07-29T16:06:19.337Z,36.01
2022-07-29T16:08:45.898Z,36.07
2022-07-29T16:11:12.426Z,35.97
2022-07-29T16:13:38.942Z,36.10
2022-07-29T16:16:05.468Z,36.43
2022-07-29T16:18:32.028Z,36.50
2022-07-29T16:20:58.728Z,36.48
2022-07-29T16:23:25.376Z,36.53
2022-07-29T16:26:00.565Z,36.55
2022-07-29T16:28:28.964Z,36.41
2022-07-29T16:30:55.602Z,36.63
2022-07-29T16:33:22.141Z,36.54
2022-07-29T16:35:48.684Z,36.61
2022-07-29T16:38:15.815Z,36.84
2022-07-29T16:40:42.724Z,36.67
2022-07-29T16:43:09.735Z,37.06
2022-07-29T16:45:42.569Z,37.04
2022-07-29T16:48:17.933Z,37.34
2022-07-29T16:50:45.331Z,37.34
2022-07-29T16:53:11.876Z,37.44
2022-07-29T16:55:38.651Z,37.61
2022-07-29T16:58:09.403Z,37.92
2022-07-29T17:00:36.218Z,38.28
2022-07-29T17:03:02.831Z,38.25
2022-07-29T17:05:29.484Z,37.97
2022-07-29T17:08:16.039Z,38.06
2022-07-29T17:10:42.571Z,38.00
2022-07-29T17:13:09.298Z,38.13
2022-07-29T17:15:36.627Z,37.96
2022-07-29T17:18:12.341Z,37.64
2022-07-29T17:20:41.300Z,37.72
2022-07-29T17:23:07.839Z,37.99
2022-07-29T17:25:34.410Z,37.94
2022-07-29T17:28:01.474Z,38.01
2022-07-29T17:30:29.291Z,38.35
2022-07-29T17:32:55.866Z,38.05
2022-07-29T17:35:41.205Z,38.14
2022-07-29T17:38:07.856Z,38.15
2022-07-29T17:40:34.413Z,38.26
2022-07-29T17:43:00.961Z,38.36
2022-07-29T17:45:49.066Z,38.37
2022-07-29T17:48:14.252Z,38.72
2022-07-29T17:50:40.868Z,38.53
2022-07-29T17:53:09.601Z,38.40
2022-07-29T17:55:45.281Z,38.33
2022-07-29T17:58:12.377Z,38.30
2022-07-29T18:00:39.226Z,38.59
2022-07-29T18:03:06.467Z,38.00
2022-07-29T18:05:33.444Z,38.13
2022-07-29T18:08:00.056Z,38.35
2022-07-29T18:10:26.862Z,38.46
2022-07-29T18:12:53.550Z,38.40
2022-07-29T18:15:20.254Z,38.64
2022-07-29T18:17:57.046Z,38.69
2022-07-29T18:20:28.121Z,38.81
2022-07-29T18:22:54.767Z,38.98
2022-07-29T18:25:22.001Z,38.84
2022-07-29T18:27:48.555Z,38.96
2022-07-29T18:30:15.484Z,38.82
2022-07-29T18:32:54.272Z,39.28
2022-07-29T18:35:26.500Z,39.28
2022-07-29T18:38:01.759Z,38.83
2022-07-29T18:40:29.990Z,38.79
2022-07-29T18:42:56.986Z,38.94
2022-07-29T18:45:28.221Z,39.15
2022-07-29T18:47:55.062Z,39.30
2022-07-29T18:50:28.822Z,39.39
2022-07-29T18:52:58.657Z,39.18
2022-07-29T18:55:26.430Z,39.63
2022-07-29T18:57:55.806Z,39.58
2022-07-29T19:00:25.232Z,39.79
2022-07-29T19:02:53.218Z,39.89
2022-07-29T19:05:21.296Z,40.24
2022-07-29T19:07:47.964Z,40.39
2022-07-29T19:10:14.673Z,40.43
2022-07-29T19:12:41.266Z,40.34
2022-07-29T19:15:10.224Z,40.52
2022-07-29T19:17:36.764Z,40.99
2022-07-29T19:20:04.537Z,40.82
2022-07-29T19:22:33.893Z,41.20
2022-07-29T19:25:00.496Z,41.33
2022-07-29T19:27:27.011Z,41.62
2022-07-29T19:29:56.638Z,41.69
2022-07-29T19:32:26.082Z,42.21
2022-07-29T19:35:11.545Z,42.56
2022-07-29T19:37:38.071Z,42.58
2022-07-29T19:40:06.395Z,42.69
2022-07-29T19:42:33.572Z,42.84
2022-07-29T19:45:00.121Z,42.90
2022-07-29T19:47:26.813Z,43.23
2022-07-29T19:49:53.355Z,43.49
2022-07-29T19:52:21.369Z,43.82
2022-07-29T19:54:48.082Z,44.24
2022-07-29T19:57:14.638Z,44.35
2022-07-29T19:59:41.376Z,44.74
2022-07-29T20:02:10.804Z,44.78
2022-07-29T20:04:37.844Z,44.53
2022-07-29T20:07:06.054Z,44.82
2022-07-29T20:09:33.085Z,44.89
2022-07-29T20:11:59.707Z,44.98
2022-07-29T20:14:26.234Z,45.09
2022-07-29T20:16:54.243Z,45.36
2022-07-29T20:19:21.024Z,46.06
2022-07-29T20:21:47.680Z,46.39
2022-07-29T20:24:14.279Z,46.31
2022-07-29T20:26:40.791Z,46.22
2022-07-29T20:29:07.367Z,46.54
2022-07-29T20:31:34.027Z,46.74
2022-07-29T20:34:01.844Z,46.94
2022-07-29T20:36:28.936Z,46.97
2022-07-29T20:38:56.647Z,46.95
2022-07-29T20:41:23.378Z,47.03
2022-07-29T20:43:50.093Z,46.98
2022-07-29T20:46:18.573Z,47.00
2022-07-29T20:48:46.866Z,47.42
2022-07-29T20:51:14.658Z,47.33
2022-07-29T20:53:41.419Z,47.59
2022-07-29T20:56:08.575Z,47.70
2022-07-29T20:58:36.243Z,47.70
2022-07-29T21:01:03.832Z,47.94
2022-07-29T21:03:30.724Z,48.53
2022-07-29T21:05:57.312Z,48.69
2022-07-29T21:08:24.093Z,49.02
2022-07-29T21:10:50.679Z,49.32
2022-07-29T21:13:18.551Z,49.58
2022-07-29T21:15:49.124Z,49.63
2022-07-29T21:18:32.832Z,50.08
2022-07-29T21:21:04.545Z,49.99
2022-07-29T21:23:31.163Z,50.33
2022-07-29T21:25:58.198Z,50.35
2022-07-29T21:28:27.689Z,51.09
2022-07-29T21:30:57.160Z,51.36
2022-07-29T21:33:25.545Z,51.29
2022-07-29T21:36:20.203Z,51.07
2022-07-29T21:38:39.460Z,52.90
2022-07-29T21:41:06.773Z,51.97
2022-07-29T21:43:33.666Z,52.08
2022-07-29T21:46:00.523Z,52.19
2022-07-29T21:48:28.699Z,51.91
2022-07-29T21:50:56.299Z,51.79
2022-07-29T21:53:26.743Z,52.34
2022-07-29T21:55:54.273Z,52.45
2022-07-29T21:58:22.850Z,52.54
2022-07-29T22:00:49.512Z,52.76
2022-07-29T22:03:16.440Z,53.04
2022-07-29T22:05:44.063Z,53.32
2022-07-29T22:08:10.831Z,53.33
2022-07-29T22:10:37.518Z,53.81
2022-07-29T22:13:04.246Z,54.19
2022-07-29T22:15:31.316Z,54.53
2022-07-29T22:17:58.434Z,54.69
2022-07-29T22:20:25.460Z,55.03
2022-07-29T22:22:52.773Z,55.11
2022-07-29T22:25:20.226Z,55.51
2022-07-29T22:27:46.862Z,55.49
2022-07-29T22:30:14.250Z,55.80
2022-07-29T22:32:41.448Z,56.18
2022-07-29T22:35:08.725Z,55.98
2022-07-29T22:37:35.541Z,55.76
2022-07-29T22:40:02.328Z,55.38
2022-07-29T22:42:28.983Z,55.35
2022-07-29T22:44:55.529Z,55.48
2022-07-29T22:47:39.814Z,55.93
2022-07-29T22:50:08.967Z,56.20
2022-07-29T22:52:35.633Z,56.01
2022-07-29T22:55:04.150Z,55.72
2022-07-29T22:57:30.664Z,55.80
2022-07-29T22:59:57.236Z,55.91
2022-07-29T23:02:23.786Z,56.09
2022-07-29T23:04:50.285Z,56.14
2022-07-29T23:07:17.551Z,56.61
2022-07-29T23:09:44.118Z,56.39
2022-07-29T23:12:10.729Z,56.06
2022-07-29T23:14:37.656Z,56.63
2022-07-29T23:17:05.592Z,56.74
2022-07-29T23:19:32.233Z,56.48
2022-07-29T23:21:58.844Z,56.32
2022-07-29T23:24:25.453Z,55.88
2022-07-29T23:26:51.947Z,55.79
2022-07-29T23:29:18.478Z,55.49
2022-07-29T23:31:48.202Z,55.46
2022-07-29T23:34:14.906Z,55.62
2022-07-29T23:36:42.163Z,56.10
2022-07-29T23:39:13.196Z,55.72
2022-07-29T23:41:40.268Z,55.55
2022-07-29T23:44:07.199Z,55.95
2022-07-29T23:46:34.016Z,55.77
2022-07-29T23:49:00.758Z,56.56
2022-07-29T23:51:28.966Z,56.64
2022-07-29T23:53:55.931Z,56.47
2022-07-29T23:56:22.972Z,56.54
2022-07-29T23:58:49.503Z,56.31
